createdAt,value
2023-02-27T00:00:22.872Z,56.54
2023-02-27T00:02:51.520Z,56.75
2023-02-27T00:05:19.134Z,56.68
2023-02-27T00:07:45.473Z,56.80
2023-02-27T00:10:12.777Z,56.70
2023-02-27T00:12:39.290Z,56.94
2023-02-27T00:15:07.407Z,56.93
2023-02-27T00:17:34.073Z,57.08
2023-02-27T00:20:00.545Z,56.93
2023-02-27T00:22:27.386Z,57.03
2023-02-27T00:24:53.795Z,57.02
2023-02-27T00:27:20.145Z,56.99
2023-02-27T00:29:46.698Z,57.19
2023-02-27T00:32:13.103Z,57.11
2023-02-27T00:34:39.544Z,57.11
2023-02-27T00:37:05.898Z,57.22
2023-02-27T00:39:32.347Z,57.52
2023-02-27T00:41:58.724Z,57.24
2023-02-27T00:44:25.061Z,57.52
2023-02-27T00:46:51.519Z,57.28
2023-02-27T00:49:17.977Z,57.14
2023-02-27T00:51:44.300Z,57.09
2023-02-27T00:54:10.741Z,57.03
2023-02-27T00:56:37.185Z,57.04
2023-02-27T00:59:04.069Z,56.96
2023-02-27T01:01:30.430Z,57.08
2023-02-27T01:03:56.734Z,57.14
2023-02-27T01:06:23.045Z,57.28
2023-02-27T01:08:49.438Z,57.43
2023-02-27T01:11:15.812Z,57.35
2023-02-27T01:13:44.240Z,57.65
2023-02-27T01:16:11.466Z,57.68
2023-02-27T01:18:38.057Z,57.55
2023-02-27T01:21:04.957Z,57.90
2023-02-27T01:23:31.348Z,58.00
2023-02-27T01:25:57.697Z,58.35
2023-02-27T01:28:24.103Z,58.34
2023-02-27T01:30:50.509Z,58.48
2023-02-27T01:33:17.469Z,58.47
2023-02-27T01:35:43.861Z,58.79
2023-02-27T01:38:10.224Z,58.54
2023-02-27T01:40:41.324Z,58.72
2023-02-27T01:43:15.062Z,58.96
2023-02-27T01:45:42.664Z,59.12
2023-02-27T01:48:24.357Z,58.98
2023-02-27T01:50:55.594Z,59.12
2023-02-27T01:53:26.038Z,59.08
2023-02-27T01:56:02.289Z,59.46
2023-02-27T01:58:28.894Z,59.63
2023-02-27T02:00:55.829Z,59.24
2023-02-27T02:03:34.421Z,59.47
2023-02-27T02:06:02.607Z,59.41
2023-02-27T02:08:32.158Z,59.59
2023-02-27T02:10:59.221Z,59.73
2023-02-27T02:13:26.018Z,59.91
2023-02-27T02:16:37.455Z,59.74
2023-02-27T02:19:28.932Z,59.46
2023-02-27T02:22:16.437Z,59.55
2023-02-27T02:25:01.612Z,59.87
2023-02-27T02:28:02.070Z,59.59
2023-02-27T02:30:46.038Z,59.81
2023-02-27T02:33:20.281Z,59.40
2023-02-27T02:36:08.592Z,59.75
2023-02-27T02:38:50.161Z,59.57
2023-02-27T02:41:53.213Z,59.78
2023-02-27T02:44:52.145Z,59.86
2023-02-27T02:47:44.675Z,60.03
2023-02-27T02:50:14.163Z,59.53
2023-02-27T02:52:57.646Z,60.11
2023-02-27T02:55:34.304Z,59.66
2023-02-27T02:58:19.342Z,59.90
2023-02-27T03:00:52.851Z,59.53
2023-02-27T03:03:26.893Z,59.83
2023-02-27T03:06:00.627Z,60.21
2023-02-27T03:08:31.589Z,60.20
2023-02-27T03:11:00.540Z,60.56
2023-02-27T03:13:35.529Z,60.74
2023-02-27T03:16:13.436Z,60.72
2023-02-27T03:18:53.907Z,60.78
2023-02-27T03:21:28.415Z,60.31
2023-02-27T03:23:59.650Z,60.90
2023-02-27T03:26:33.481Z,60.67
2023-02-27T03:29:14.297Z,60.88
2023-02-27T03:31:49.418Z,61.08
2023-02-27T03:34:21.031Z,60.81
2023-02-27T03:36:58.623Z,60.86
2023-02-27T03:39:41.344Z,60.92
2023-02-27T03:42:26.513Z,61.18
2023-02-27T03:45:00.706Z,60.95
2023-02-27T03:47:27.848Z,61.11
2023-02-27T03:49:55.720Z,61.10
2023-02-27T03:52:24.157Z,61.08
2023-02-27T03:54:57.742Z,61.05
2023-02-27T03:57:24.207Z,61.01
2023-02-27T03:59:51.286Z,61.00
2023-02-27T04:02:17.741Z,61.22
2023-02-27T04:04:44.157Z,61.12
2023-02-27T04:07:34.620Z,61.05
2023-02-27T04:10:28.970Z,61.22
2023-02-27T04:13:21.501Z,60.95
2023-02-27T04:16:28.636Z,61.29
2023-02-27T04:19:29.177Z,61.59
2023-02-27T04:22:30.199Z,61.38
2023-02-27T04:25:02.814Z,61.11
2023-02-27T04:27:39.417Z,60.78
2023-02-27T04:30:20.537Z,61.50
2023-02-27T04:33:03.469Z,60.95
2023-02-27T04:35:46.513Z,61.01
2023-02-27T04:38:32.187Z,61.27
2023-02-27T04:41:04.765Z,61.46
2023-02-27T04:43:32.591Z,61.59
2023-02-27T04:46:00.577Z,61.31
2023-02-27T04:48:33.191Z,61.73
2023-02-27T04:50:59.454Z,61.88
2023-02-27T04:53:31.400Z,61.98
2023-02-27T04:56:04.626Z,61.47
2023-02-27T04:58:38.885Z,61.79
2023-02-27T05:01:14.976Z,62.01
2023-02-27T05:03:48.400Z,61.49
2023-02-27T05:06:17.699Z,61.60
2023-02-27T05:08:59.327Z,61.89
2023-02-27T05:11:36.046Z,61.65
2023-02-27T05:14:12.460Z,61.70
2023-02-27T05:16:44.761Z,61.61
2023-02-27T05:19:11.268Z,61.72
2023-02-27T05:22:05.723Z,61.62
2023-02-27T05:25:00.706Z,62.25
2023-02-27T05:27:42.104Z,61.96
2023-02-27T05:30:23.519Z,62.31
2023-02-27T05:33:13.527Z,62.38
2023-02-27T05:36:03.429Z,62.05
2023-02-27T05:38:52.694Z,62.35
2023-02-27T05:41:31.061Z,62.24
2023-02-27T05:44:21.059Z,62.16
2023-02-27T05:46:54.499Z,62.43
2023-02-27T05:49:28.090Z,62.27
2023-02-27T05:51:57.351Z,62.15
2023-02-27T05:54:29.515Z,62.03
2023-02-27T05:56:58.528Z,61.99
2023-02-27T05:59:35.592Z,62.10
2023-02-27T06:02:02.099Z,62.23
2023-02-27T06:04:28.819Z,62.24
2023-02-27T06:06:55.271Z,62.49
2023-02-27T06:09:22.080Z,62.24
2023-02-27T06:11:48.399Z,61.79
2023-02-27T06:14:14.712Z,61.82
2023-02-27T06:16:41.116Z,62.14
2023-02-27T06:19:07.489Z,61.68
2023-02-27T06:21:33.908Z,62.18
2023-02-27T06:24:00.223Z,62.19
2023-02-27T06:26:26.854Z,62.40
2023-02-27T06:28:53.460Z,61.87
2023-02-27T06:31:19.905Z,62.06
2023-02-27T06:33:46.233Z,62.08
2023-02-27T06:36:12.689Z,62.11
2023-02-27T06:38:39.155Z,62.49
2023-02-27T06:41:05.653Z,62.75
2023-02-27T06:43:34.634Z,62.56
2023-02-27T06:46:01.077Z,63.08
2023-02-27T06:48:27.427Z,62.79
2023-02-27T06:50:56.174Z,63.05
2023-02-27T06:53:23.774Z,62.91
2023-02-27T06:55:50.489Z,63.41
2023-02-27T06:58:17.608Z,63.12
2023-02-27T07:00:44.252Z,63.26
2023-02-27T07:03:11.945Z,63.54
2023-02-27T07:05:38.272Z,63.45
2023-02-27T07:08:04.963Z,63.34
2023-02-27T07:10:31.316Z,63.17
2023-02-27T07:12:57.634Z,63.80
2023-02-27T07:15:24.294Z,63.69
2023-02-27T07:17:50.633Z,63.63
2023-02-27T07:20:17.139Z,63.87
2023-02-27T07:22:43.505Z,63.86
2023-02-27T07:25:10.044Z,63.85
2023-02-27T07:27:36.387Z,63.50
2023-02-27T07:30:02.859Z,63.59
2023-02-27T07:32:29.200Z,63.71
2023-02-27T07:34:55.573Z,64.11
2023-02-27T07:37:21.929Z,63.98
2023-02-27T07:39:48.286Z,63.93
2023-02-27T07:42:14.648Z,63.82
2023-02-27T07:44:41.086Z,64.29
2023-02-27T07:47:07.486Z,64.22
2023-02-27T07:49:33.872Z,64.10
2023-02-27T07:52:00.292Z,64.08
2023-02-27T07:54:27.490Z,64.08
2023-02-27T07:56:53.860Z,64.43
2023-02-27T07:59:20.292Z,64.60
2023-02-27T08:01:46.662Z,64.58
2023-02-27T08:04:13.054Z,64.61
2023-02-27T08:06:39.942Z,64.30
2023-02-27T08:09:06.312Z,64.20
2023-02-27T08:11:32.661Z,64.09
2023-02-27T08:14:00.854Z,63.94
2023-02-27T08:16:28.329Z,64.18
2023-02-27T08:18:55.094Z,63.63
2023-02-27T08:21:21.466Z,63.50
2023-02-27T08:23:47.879Z,63.08
2023-02-27T08:26:14.496Z,62.73
2023-02-27T08:28:41.301Z,62.01
2023-02-27T08:31:07.690Z,61.71
2023-02-27T08:33:34.473Z,61.51
2023-02-27T08:36:00.839Z,61.31
2023-02-27T08:38:27.763Z,60.93
2023-02-27T08:40:54.181Z,61.07
2023-02-27T08:43:23.774Z,61.00
2023-02-27T08:45:50.876Z,60.42
2023-02-27T08:48:18.435Z,60.17
2023-02-27T08:50:46.426Z,59.96
2023-02-27T08:53:13.218Z,59.91
2023-02-27T08:55:39.659Z,59.81
2023-02-27T08:58:06.119Z,59.91
2023-02-27T09:00:32.782Z,60.08
2023-02-27T09:03:00.450Z,59.87
2023-02-27T09:05:27.596Z,59.88
2023-02-27T09:07:53.981Z,59.85
2023-02-27T09:10:20.318Z,59.77
2023-02-27T09:12:49.095Z,59.56
2023-02-27T09:15:15.567Z,59.36
2023-02-27T09:17:41.942Z,58.92
2023-02-27T09:20:09.517Z,58.81
2023-02-27T09:22:36.002Z,58.57
2023-02-27T09:25:02.857Z,58.25
2023-02-27T09:27:29.211Z,57.71
2023-02-27T09:29:56.317Z,57.22
2023-02-27T09:32:23.368Z,57.59
2023-02-27T09:34:49.879Z,57.58
2023-02-27T09:37:19.068Z,57.36
2023-02-27T09:39:46.418Z,57.30
2023-02-27T09:42:21.884Z,56.70
2023-02-27T09:44:52.238Z,57.02
2023-02-27T09:47:26.684Z,57.18
2023-02-27T09:50:22.209Z,56.55
2023-02-27T09:52:48.565Z,56.43
2023-02-27T09:55:21.444Z,56.91
2023-02-27T09:58:06.742Z,56.75
2023-02-27T10:00:49.603Z,56.33
2023-02-27T10:03:53.433Z,56.12
2023-02-27T10:06:26.790Z,56.65
2023-02-27T10:09:12.405Z,56.15
2023-02-27T10:12:00.138Z,55.54
2023-02-27T10:14:41.970Z,55.53
2023-02-27T10:17:38.683Z,55.76
2023-02-27T10:20:10.572Z,55.83
2023-02-27T10:22:42.920Z,56.14
2023-02-27T10:25:29.690Z,55.88
2023-02-27T10:28:08.783Z,54.02
2023-02-27T10:30:36.808Z,53.71
2023-02-27T10:33:18.987Z,54.40
2023-02-27T10:35:45.999Z,54.56
2023-02-27T10:38:21.110Z,54.79
2023-02-27T10:40:48.251Z,53.92
2023-02-27T10:43:18.974Z,53.76
2023-02-27T10:45:45.349Z,53.72
2023-02-27T10:48:12.434Z,53.26
2023-02-27T10:50:42.494Z,53.25
2023-02-27T10:53:24.703Z,53.35
2023-02-27T10:56:07.876Z,52.55
2023-02-27T10:58:36.777Z,52.53
2023-02-27T11:01:06.953Z,52.96
2023-02-27T11:03:42.170Z,52.28
2023-02-27T11:06:19.618Z,52.53
2023-02-27T11:09:18.099Z,52.19
2023-02-27T11:11:44.486Z,51.41
2023-02-27T11:14:32.763Z,50.78
2023-02-27T11:17:01.774Z,51.11
2023-02-27T11:19:38.351Z,50.65
2023-02-27T11:22:15.462Z,49.46
2023-02-27T11:24:42.195Z,49.90
2023-02-27T11:27:26.985Z,50.18
2023-02-27T11:30:20.621Z,50.36
2023-02-27T11:32:49.792Z,49.39
2023-02-27T11:35:25.348Z,49.90
2023-02-27T11:37:54.261Z,49.39
2023-02-27T11:40:25.154Z,48.54
2023-02-27T11:43:03.699Z,47.90
2023-02-27T11:46:19.453Z,47.67
2023-02-27T11:48:27.445Z,46.46
2023-02-27T11:51:06.980Z,47.08
2023-02-27T11:53:48.479Z,45.88
2023-02-27T11:56:20.897Z,46.91
2023-02-27T11:59:30.047Z,46.56
2023-02-27T12:02:01.387Z,47.25
2023-02-27T12:04:41.401Z,47.55
2023-02-27T12:07:31.038Z,47.87
2023-02-27T12:10:12.582Z,47.14
2023-02-27T12:12:55.302Z,46.63
2023-02-27T12:15:30.206Z,47.39
2023-02-27T12:18:07.899Z,47.31
2023-02-27T12:21:02.338Z,46.87
2023-02-27T12:23:40.989Z,46.71
2023-02-27T12:26:19.033Z,46.24
2023-02-27T12:28:56.998Z,46.00
2023-02-27T12:31:35.443Z,46.60
2023-02-27T12:34:27.242Z,46.85
2023-02-27T12:36:54.162Z,47.42
2023-02-27T12:39:23.637Z,48.27
2023-02-27T12:41:59.114Z,48.16
2023-02-27T12:44:37.859Z,48.49
2023-02-27T12:47:32.190Z,47.61
2023-02-27T12:50:15.128Z,48.34
2023-02-27T12:53:20.456Z,46.87
2023-02-27T12:56:01.701Z,46.77
2023-02-27T12:59:06.004Z,45.83
2023-02-27T13:01:47.893Z,46.90
2023-02-27T13:04:23.721Z,46.88
2023-02-27T13:06:53.197Z,47.61
2023-02-27T13:09:40.808Z,47.00
2023-02-27T13:12:07.061Z,47.04
2023-02-27T13:14:51.741Z,47.26
2023-02-27T13:17:29.711Z,47.23
2023-02-27T13:20:19.232Z,47.03
2023-02-27T13:22:53.125Z,48.54
2023-02-27T13:25:20.268Z,47.71
2023-02-27T13:27:55.571Z,46.45
2023-02-27T13:30:27.339Z,46.77
2023-02-27T13:32:58.890Z,47.31
2023-02-27T13:35:40.264Z,46.50
2023-02-27T13:38:46.889Z,46.86
2023-02-27T13:41:27.739Z,46.38
2023-02-27T13:44:20.395Z,46.41
2023-02-27T13:46:47.136Z,46.56
2023-02-27T13:49:28.776Z,46.75
2023-02-27T13:51:59.407Z,46.90
2023-02-27T13:54:29.347Z,46.55
2023-02-27T13:56:57.594Z,46.03
2023-02-27T13:59:36.518Z,46.68
2023-02-27T14:02:31.066Z,45.99
2023-02-27T14:05:01.553Z,45.99
2023-02-27T14:07:33.670Z,45.45
2023-02-27T14:10:05.402Z,45.54
2023-02-27T14:12:46.329Z,45.37
2023-02-27T14:15:15.788Z,45.32
2023-02-27T14:17:44.877Z,44.79
2023-02-27T14:20:17.362Z,44.94
2023-02-27T14:23:15.284Z,44.37
2023-02-27T14:25:45.441Z,45.01
2023-02-27T14:28:30.558Z,45.15
2023-02-27T14:31:01.787Z,45.09
2023-02-27T14:33:40.630Z,45.47
2023-02-27T14:36:18.882Z,44.80
2023-02-27T14:38:45.936Z,44.51
2023-02-27T14:41:21.326Z,43.90
2023-02-27T14:43:57.512Z,44.00
2023-02-27T14:46:23.978Z,43.57
2023-02-27T14:49:02.610Z,43.96
2023-02-27T14:51:35.875Z,43.80
2023-02-27T14:54:23.912Z,43.98
2023-02-27T14:56:59.107Z,44.13
2023-02-27T14:59:34.583Z,44.74
2023-02-27T15:02:04.287Z,44.44
2023-02-27T15:04:32.734Z,44.71
2023-02-27T15:07:00.238Z,45.18
2023-02-27T15:09:44.553Z,45.01
2023-02-27T15:12:17.649Z,44.95
2023-02-27T15:14:49.258Z,44.07
2023-02-27T15:17:19.181Z,43.94
2023-02-27T15:19:52.369Z,43.70
2023-02-27T15:22:39.799Z,43.55
2023-02-27T15:25:25.633Z,43.74
2023-02-27T15:27:52.400Z,43.78
2023-02-27T15:30:21.627Z,43.68
2023-02-27T15:32:47.957Z,44.32
2023-02-27T15:35:24.489Z,44.22
2023-02-27T15:37:57.029Z,44.54
2023-02-27T15:40:31.904Z,45.19
2023-02-27T15:42:59.341Z,44.19
2023-02-27T15:45:35.231Z,44.01
2023-02-27T15:48:02.968Z,44.23
2023-02-27T15:50:37.074Z,44.71
2023-02-27T15:53:12.062Z,45.13
2023-02-27T15:55:44.762Z,45.05
2023-02-27T15:58:26.257Z,44.45
2023-02-27T16:01:00.973Z,44.95
2023-02-27T16:03:42.328Z,44.17
2023-02-27T16:06:18.036Z,44.92
2023-02-27T16:08:52.609Z,44.27
2023-02-27T16:11:30.576Z,44.56
2023-02-27T16:13:57.793Z,44.77
2023-02-27T16:16:35.006Z,44.86
2023-02-27T16:19:27.105Z,45.09
2023-02-27T16:22:12.655Z,45.17
2023-02-27T16:24:39.001Z,45.07
2023-02-27T16:27:05.647Z,45.27
2023-02-27T16:29:37.001Z,44.64
2023-02-27T16:32:04.017Z,44.98
2023-02-27T16:34:45.528Z,44.85
2023-02-27T16:37:43.232Z,44.90
2023-02-27T16:40:20.390Z,44.93
2023-02-27T16:42:46.833Z,45.42
2023-02-27T16:45:18.828Z,45.58
2023-02-27T16:47:49.155Z,45.88
2023-02-27T16:50:22.910Z,45.50
2023-02-27T16:52:49.247Z,45.61
2023-02-27T16:55:15.727Z,45.53
2023-02-27T16:57:42.126Z,45.52
2023-02-27T17:00:13.329Z,45.74
2023-02-27T17:02:39.774Z,45.38
2023-02-27T17:05:06.359Z,45.57
2023-02-27T17:07:33.153Z,45.69
2023-02-27T17:10:00.350Z,46.05
2023-02-27T17:12:27.351Z,45.50
2023-02-27T17:14:53.879Z,45.58
2023-02-27T17:17:20.208Z,45.55
2023-02-27T17:19:46.633Z,45.49
2023-02-27T17:22:13.089Z,45.92
2023-02-27T17:24:39.493Z,46.24
2023-02-27T17:27:05.828Z,45.88
2023-02-27T17:29:32.182Z,46.50
2023-02-27T17:31:58.567Z,46.34
2023-02-27T17:34:25.070Z,46.70
2023-02-27T17:36:53.109Z,46.61
2023-02-27T17:39:19.549Z,46.61
2023-02-27T17:41:46.313Z,46.67
2023-02-27T17:44:13.237Z,46.53
2023-02-27T17:46:40.516Z,46.73
2023-02-27T17:49:07.526Z,46.65
2023-02-27T17:51:34.078Z,46.97
2023-02-27T17:54:03.573Z,47.31
2023-02-27T17:56:30.206Z,47.03
2023-02-27T17:58:57.534Z,47.35
2023-02-27T18:01:26.229Z,47.30
2023-02-27T18:03:54.210Z,47.12
2023-02-27T18:06:21.678Z,47.43
2023-02-27T18:08:49.342Z,47.86
2023-02-27T18:11:18.698Z,47.69
2023-02-27T18:13:45.702Z,47.55
2023-02-27T18:16:12.895Z,48.03
2023-02-27T18:18:42.113Z,47.84
2023-02-27T18:21:12.794Z,47.97
2023-02-27T18:23:39.826Z,48.15
2023-02-27T18:26:07.133Z,48.26
2023-02-27T18:28:34.784Z,47.86
2023-02-27T18:31:01.174Z,48.04
2023-02-27T18:33:27.549Z,48.36
2023-02-27T18:35:54.438Z,48.10
2023-02-27T18:38:20.765Z,48.27
2023-02-27T18:40:47.168Z,48.22
2023-02-27T18:43:13.966Z,48.41
2023-02-27T18:45:41.098Z,48.59
2023-02-27T18:48:07.844Z,48.56
2023-02-27T18:50:34.762Z,48.66
2023-02-27T18:53:01.250Z,48.41
2023-02-27T18:55:27.595Z,48.71
2023-02-27T18:57:54.016Z,48.86
2023-02-27T19:00:21.904Z,49.00
2023-02-27T19:02:48.371Z,48.89
2023-02-27T19:05:14.863Z,49.19
2023-02-27T19:07:42.468Z,49.34
2023-02-27T19:10:10.165Z,49.25
2023-02-27T19:12:36.797Z,49.14
2023-02-27T19:15:04.285Z,49.27
2023-02-27T19:17:30.610Z,49.35
2023-02-27T19:19:57.000Z,49.39
2023-02-27T19:22:23.405Z,49.36
2023-02-27T19:24:50.128Z,49.26
2023-02-27T19:27:17.174Z,49.60
2023-02-27T19:29:43.853Z,49.38
2023-02-27T19:32:10.678Z,49.38
2023-02-27T19:34:37.126Z,49.49
2023-02-27T19:37:03.526Z,49.77
2023-02-27T19:39:29.952Z,49.70
2023-02-27T19:41:56.629Z,49.62
2023-02-27T19:44:23.157Z,49.58
2023-02-27T19:46:52.056Z,49.98
2023-02-27T19:49:19.758Z,49.80
2023-02-27T19:51:46.145Z,50.08
2023-02-27T19:54:13.681Z,50.21
2023-02-27T19:56:40.118Z,49.99
2023-02-27T19:59:06.460Z,50.36
2023-02-27T20:01:36.196Z,50.41
2023-02-27T20:04:03.493Z,50.64
2023-02-27T20:06:33.178Z,50.65
2023-02-27T20:09:00.292Z,50.68
2023-02-27T20:11:31.462Z,50.79
2023-02-27T20:13:58.579Z,50.91
2023-02-27T20:16:28.148Z,50.91
2023-02-27T20:18:55.027Z,50.98
2023-02-27T20:21:24.030Z,51.02
2023-02-27T20:23:51.808Z,51.08
2023-02-27T20:26:31.694Z,51.51
2023-02-27T20:29:01.464Z,51.53
2023-02-27T20:31:30.528Z,51.56
2023-02-27T20:33:58.202Z,51.81
2023-02-27T20:36:24.645Z,51.75
2023-02-27T20:38:51.081Z,52.04
2023-02-27T20:41:20.520Z,51.93
2023-02-27T20:43:48.151Z,51.90
2023-02-27T20:46:20.423Z,51.94
2023-02-27T20:48:47.271Z,51.95
2023-02-27T20:51:19.904Z,52.15
2023-02-27T20:53:48.821Z,52.06
2023-02-27T20:56:15.667Z,52.19
2023-02-27T20:58:42.120Z,52.11
2023-02-27T21:01:10.534Z,52.09
2023-02-27T21:03:41.427Z,52.39
2023-02-27T21:06:10.952Z,52.47
2023-02-27T21:08:39.257Z,52.17
2023-02-27T21:11:15.176Z,52.56
2023-02-27T21:13:42.116Z,52.29
2023-02-27T21:16:10.486Z,52.67
2023-02-27T21:18:38.050Z,52.72
2023-02-27T21:21:06.461Z,52.50
2023-02-27T21:23:34.321Z,52.69
2023-02-27T21:26:00.797Z,52.53
2023-02-27T21:28:27.215Z,52.89
2023-02-27T21:30:54.650Z,52.61
2023-02-27T21:33:22.325Z,52.70
2023-02-27T21:35:48.830Z,53.06
2023-02-27T21:38:16.377Z,52.84
2023-02-27T21:40:42.910Z,53.10
2023-02-27T21:43:09.623Z,53.13
2023-02-27T21:45:41.367Z,53.11
2023-02-27T21:48:08.179Z,53.19
2023-02-27T21:50:35.882Z,53.31
2023-02-27T21:53:02.365Z,53.27
2023-02-27T21:55:28.803Z,53.45
2023-02-27T21:57:55.252Z,53.59
2023-02-27T22:00:25.368Z,53.57
2023-02-27T22:02:51.991Z,53.33
2023-02-27T22:05:18.626Z,53.74
2023-02-27T22:07:45.185Z,53.77
2023-02-27T22:10:11.703Z,53.80
2023-02-27T22:12:38.027Z,53.62
2023-02-27T22:15:05.285Z,53.70
2023-02-27T22:17:31.642Z,53.94
2023-02-27T22:19:58.053Z,53.96
2023-02-27T22:22:24.481Z,54.15
2023-02-27T22:24:50.923Z,54.06
2023-02-27T22:27:17.353Z,54.07
2023-02-27T22:29:43.697Z,54.01
2023-02-27T22:32:10.301Z,53.97
2023-02-27T22:34:36.786Z,54.29
2023-02-27T22:37:03.205Z,54.18
2023-02-27T22:39:29.743Z,54.36
2023-02-27T22:41:56.958Z,54.59
2023-02-27T22:44:23.414Z,54.69
2023-02-27T22:46:50.330Z,54.77
2023-02-27T22:49:22.147Z,54.43
2023-02-27T22:51:51.127Z,54.56
2023-02-27T22:54:18.884Z,54.71
2023-02-27T22:56:45.380Z,54.58
2023-02-27T22:59:11.872Z,54.76
2023-02-27T23:01:38.336Z,54.64
2023-02-27T23:04:08.273Z,54.58
2023-02-27T23:06:37.296Z,54.39
2023-02-27T23:09:06.196Z,54.65
2023-02-27T23:11:32.830Z,54.41
2023-02-27T23:13:59.390Z,54.50
2023-02-27T23:16:26.109Z,54.48
2023-02-27T23:18:54.718Z,54.33
2023-02-27T23:21:24.213Z,54.14
2023-02-27T23:23:53.291Z,54.16
2023-02-27T23:26:20.147Z,54.38
2023-02-27T23:28:46.578Z,54.00
2023-02-27T23:31:13.094Z,54.08
2023-02-27T23:33:39.545Z,54.02
2023-02-27T23:36:06.304Z,53.83
2023-02-27T23:38:32.786Z,53.88
2023-02-27T23:41:05.314Z,54.10
2023-02-27T23:43:50.386Z,53.91
2023-02-27T23:46:16.725Z,53.99
2023-02-27T23:48:43.664Z,54.09
2023-02-27T23:51:11.438Z,54.21
2023-02-27T23:53:40.303Z,54.50
2023-02-27T23:56:14.325Z,54.50
2023-02-27T23:58:40.872Z,54.41
